Jordan, MT (59337)

6:16 PM MDT on July 04, 2015 (GMT -0600)
Pines | | Change Station
CLOSE
Current Station
Personal Weather Station
Location: Jordan, MT
Elevation: 2293 ft
Nearby Weather Stations
Active Advisory: Lake Wind Advisory

Elev 2293 ft 47.83 °N, 106.64 °W | Updated 23 seconds ago

Clear
Clear
85.5 °F
Feels Like 86 °F
N
4.9
Wind Variable Wind from ENE
Gusts 7.4 mph

Today
High -- | Low -- °F
--% Chance of Precip.
Yesterday
High -- | Low -- °F
Precip. -- in
5:15 AM 9:07 PM
Waning Gibbous, 89% visible
Pressure 29.72 in
Visibility 10.0 miles
Clouds Clear
Heat Index 86 °F
Dew Point 62 °F
Humidity 46%
Rainfall 0.00 in
Snow Depth Not available.
UV 2.0 out of 12
Pollen 5.70 out of 12
Air Quality Not available.
Flu Activity Not available.
METAR KGGW 042353Z AUTO 02014KT 10SM CLR 30/13 A2975 RMK AO2 SLP062 T03000133 10356 20300 51019

More Conditions Fewer Conditions

Pressure 29.72 in
Visibility 10.0 miles
Clouds Clear
Heat Index 86 °F
Dew Point 62 °F
Humidity 46%
Rainfall 0.00 in
Snow Depth Not available.
UV 2.0 out of 12
Pollen 5.70 out of 12
Air Quality Not available.
Flu Activity Not available.
METAR KGGW 042353Z AUTO 02014KT 10SM CLR 30/13 A2975 RMK AO2 SLP062 T03000133 10356 20300 51019

More Conditions Fewer Conditions

10-Day Weather Forecast

×

Almanac

Astronomy

Jul. 04, 2015 Rise Set
Actual Time
Civil Twilight
Nautical Twilight
Astronomical Twilight
Moon
Length of Visible Light
Length of Day
Tomorrow will be .
, % of the Moon is Illuminated

Today's Extremes

State Highs State Lows

Community

WunderPhotos

Upload Photos

1,835,119 photos uploaded!

WunderBlogs® & News

Nearby

Air Quality

  Air Quality AQ Index Pollutant
Not available.

Snow Depth

Station Depth Elevation

Earthquake Activity

City Distance Mag. Time & Date
Minimum magnitude displayed is 2.5.

Coastal Water Temperatures

Place Temperature

Stations

Nearby Weather Stations

Station Location Temp. Windchill Dew Point Humidity Wind Precip. Elev Updated Type
                   
Lake Wind Advisory
Statement as of 4:52 PM MDT on July 04, 2015

... Lake Wind Advisory in effect until 9 PM MDT this evening for
Fort Peck Lake...

The National Weather Service in Glasgow has issued a lake Wind
Advisory for Fort Peck Lake... which is in effect until 9 PM MDT
this evening.

* Timing... until 9 PM.

* Winds... north at 20 with gusts to 30 mph.

* Impacts... these winds will make open waters of the lake rough
and hazardous... and may result in high waves which may tip or
swamp smaller craft.

Precautionary/preparedness actions...

Boaters should use extreme caution if venturing onto Fort Peck
Lake. For your personal safety... avoid the open waters. Stay
close to shore or around protected areas.